Time;durP1;ratioP1;P1;durP2;ratioP2;P2;SDS_P1;SDS_P2;PMS_P1;PMS_P2;Temp;Humidity;BMP_temperature;BMP_pressure;BME280_temperature;BME280_humidity;BME280_pressure;Samples;Min_cycle;Max_cycle;Signal;HPM_P1;HPM_P2
2022/01/01 00:01:07;;;;;;;43.70;30.83;;;4.30;99.90;;;;;;5058801;28;20879;-58
2022/01/01 00:03:34;;;;;;;23.30;20.30;;;4.30;99.90;;;;;;5066877;28;20536;-56
2022/01/01 00:06:01;;;;;;;30.03;22.23;;;4.20;99.90;;;;;;5064399;28;20485;-58
2022/01/01 00:08:28;;;;;;;36.30;25.53;;;4.00;99.90;;;;;;5048564;28;20522;-57
2022/01/01 00:10:55;;;;;;;36.13;26.77;;;4.20;99.90;;;;;;5057561;28;20493;-56
2022/01/01 00:13:22;;;;;;;26.83;18.27;;;4.20;99.90;;;;;;5066169;28;20438;-56
2022/01/01 00:15:49;;;;;;;24.57;16.73;;;4.20;99.90;;;;;;5063301;28;20456;-56
2022/01/01 00:18:17;;;;;;;31.23;25.30;;;4.30;99.90;;;;;;5056104;28;20477;-56
2022/01/01 00:20:44;;;;;;;42.70;30.37;;;4.40;99.90;;;;;;5063695;28;20477;-57
2022/01/01 00:23:11;;;;;;;42.90;33.20;;;4.30;99.90;;;;;;5066395;28;20568;-56
2022/01/01 00:25:38;;;;;;;42.07;32.00;;;4.30;99.90;;;;;;5062303;28;20550;-57
2022/01/01 00:28:05;;;;;;;31.87;21.87;;;4.30;99.90;;;;;;5059213;28;20487;-56
2022/01/01 00:30:32;;;;;;;22.77;15.77;;;4.30;99.90;;;;;;5065522;28;20503;-57
2022/01/01 00:32:59;;;;;;;50.40;33.80;;;4.40;99.90;;;;;;5062422;28;20525;-57
2022/01/01 00:35:27;;;;;;;43.03;31.40;;;4.40;99.90;;;;;;5055581;28;20546;-56
2022/01/01 00:37:54;;;;;;;30.77;23.50;;;4.30;99.90;;;;;;5061221;28;20490;-56
2022/01/01 00:40:21;;;;;;;36.33;27.93;;;4.20;99.90;;;;;;5063247;28;21003;-57
2022/01/01 00:42:48;;;;;;;32.63;25.10;;;4.10;99.90;;;;;;5062424;28;20520;-56
2022/01/01 00:45:15;;;;;;;18.80;13.40;;;4.00;99.90;;;;;;5056835;28;20549;-56
2022/01/01 00:47:42;;;;;;;14.37;11.70;;;3.60;99.90;;;;;;5057057;28;20539;-57
2022/01/01 00:50:10;;;;;;;8.70;7.00;;;3.50;99.90;;;;;;5061444;28;20472;-55
2022/01/01 00:52:38;;;;;;;9.80;7.50;;;3.50;99.90;;;;;;5052247;28;20448;-57
2022/01/01 00:55:06;;;;;;;63.07;45.80;;;3.60;99.90;;;;;;5057262;28;20553;-56
2022/01/01 00:57:33;;;;;;;25.07;20.37;;;3.80;99.90;;;;;;5063407;28;20537;-56
2022/01/01 01:00:01;;;;;;;24.47;16.50;;;3.20;99.90;;;;;;5062386;28;20458;-56
2022/01/01 01:02:28;;;;;;;19.53;12.63;;;3.40;99.90;;;;;;5060030;28;20441;-56
2022/01/01 01:04:55;;;;;;;14.07;10.10;;;3.50;99.90;;;;;;5058176;28;20509;-56
2022/01/01 01:07:22;;;;;;;13.20;9.17;;;3.70;99.90;;;;;;5061544;28;20897;-56
2022/01/01 01:09:50;;;;;;;11.23;8.27;;;3.90;99.90;;;;;;5052052;28;20498;-56
2022/01/01 01:12:23;;;;;;;16.40;12.57;;;3.80;99.90;;;;;;5044631;28;20967;-56
2022/01/01 01:14:52;;;;;;;6.83;5.93;;;4.00;99.90;;;;;;5060771;28;20462;-56
2022/01/01 01:17:19;;;;;;;29.20;20.77;;;4.00;99.90;;;;;;5058359;28;20580;-56
2022/01/01 01:19:45;;;;;;;42.13;32.40;;;4.10;99.90;;;;;;5061596;28;20487;-56
2022/01/01 01:22:12;;;;;;;26.20;20.83;;;3.70;99.90;;;;;;5054778;28;20488;-57
2022/01/01 01:24:40;;;;;;;24.60;17.97;;;3.70;99.90;;;;;;5050138;28;20565;-56
2022/01/01 01:27:08;;;;;;;26.57;18.50;;;3.80;99.90;;;;;;5063911;28;21011;-56
2022/01/01 01:29:38;;;;;;;33.10;23.67;;;3.80;99.90;;;;;;5050630;28;20482;-56
2022/01/01 01:32:05;;;;;;;71.03;54.50;;;3.90;99.90;;;;;;5056184;28;20446;-57
2022/01/01 01:34:32;;;;;;;59.27;44.13;;;3.80;99.90;;;;;;5062195;28;20486;-56
2022/01/01 01:36:59;;;;;;;33.93;24.83;;;3.30;99.90;;;;;;5062672;28;20857;-56
2022/01/01 01:39:26;;;;;;;24.47;18.60;;;3.50;99.90;;;;;;5045144;28;20476;-56
2022/01/01 01:41:54;;;;;;;84.87;56.67;;;3.50;99.90;;;;;;5059337;28;20931;-56
2022/01/01 01:44:28;;;;;;;69.17;46.63;;;3.50;99.90;;;;;;5056079;28;20524;-56
2022/01/01 01:46:56;;;;;;;53.13;37.43;;;2.90;99.90;;;;;;5061858;28;20531;-55
2022/01/01 01:49:23;;;;;;;41.03;30.97;;;2.60;99.90;;;;;;5058442;28;20459;-57
2022/01/01 01:51:50;;;;;;;74.37;52.20;;;2.80;99.90;;;;;;5061150;28;20531;-56
2022/01/01 01:54:17;;;;;;;78.73;47.67;;;3.00;99.90;;;;;;5064482;28;20483;-56
2022/01/01 01:56:46;;;;;;;85.50;55.77;;;2.90;99.90;;;;;;5061008;28;20441;-56
2022/01/01 01:59:13;;;;;;;65.03;45.23;;;2.50;99.90;;;;;;5053759;28;20449;-56
2022/01/01 02:01:42;;;;;;;83.10;57.20;;;2.30;99.90;;;;;;5061802;28;20476;-56
2022/01/01 02:04:09;;;;;;;84.43;55.63;;;2.60;99.90;;;;;;5060407;28;20926;-56
2022/01/01 02:06:36;;;;;;;73.53;51.43;;;2.70;99.90;;;;;;5060162;28;20448;-56
2022/01/01 02:09:04;;;;;;;70.50;50.97;;;2.90;99.90;;;;;;5054978;28;20474;-56
2022/01/01 02:11:31;;;;;;;58.60;41.90;;;2.90;99.90;;;;;;5062598;28;20453;-57
2022/01/01 02:14:13;;;;;;;62.80;43.30;;;3.00;99.90;;;;;;5062496;28;20449;-56
2022/01/01 02:17:08;;;;;;;72.40;50.43;;;3.30;99.90;;;;;;5049927;28;20442;-56
2022/01/01 02:19:48;;;;;;;73.30;50.60;;;3.30;99.90;;;;;;5053229;28;20448;-56
2022/01/01 02:22:16;;;;;;;67.10;51.33;;;3.40;99.90;;;;;;5057396;28;20472;-56
2022/01/01 02:24:43;;;;;;;53.17;37.10;;;3.00;99.90;;;;;;5066469;28;20536;-56
2022/01/01 02:27:11;;;;;;;49.83;37.70;;;2.60;99.90;;;;;;5054952;28;21004;-56
2022/01/01 02:29:38;;;;;;;74.63;48.20;;;2.80;99.90;;;;;;5056485;28;20456;-56
2022/01/01 02:32:09;;;;;;;60.97;44.93;;;2.80;99.90;;;;;;5062476;28;20445;-56
2022/01/01 02:34:37;;;;;;;64.73;43.70;;;2.90;99.90;;;;;;5066788;28;20473;-56
2022/01/01 02:37:05;;;;;;;63.70;45.40;;;3.00;99.90;;;;;;5057993;28;20476;-56
2022/01/01 02:39:33;;;;;;;53.77;40.33;;;3.00;99.90;;;;;;5052597;28;20544;-57
2022/01/01 02:42:00;;;;;;;40.00;30.53;;;3.10;99.90;;;;;;5046872;28;20541;-56
2022/01/01 02:44:28;;;;;;;43.93;33.20;;;2.80;99.90;;;;;;5057470;28;20563;-56
2022/01/01 02:46:56;;;;;;;45.40;34.07;;;3.00;99.90;;;;;;5052082;28;20464;-55
2022/01/01 02:49:23;;;;;;;53.43;34.33;;;3.10;99.90;;;;;;5047109;28;20564;-56
2022/01/01 02:51:50;;;;;;;22.80;16.13;;;3.10;99.90;;;;;;5045776;28;20534;-56
2022/01/01 02:54:17;;;;;;;32.17;21.97;;;3.00;99.90;;;;;;5049165;28;21016;-56
2022/01/01 02:56:45;;;;;;;32.30;24.53;;;3.00;99.90;;;;;;5051492;28;20537;-56
2022/01/01 02:59:12;;;;;;;51.30;36.40;;;3.00;99.90;;;;;;5051340;28;20536;-57
2022/01/01 03:01:39;;;;;;;48.33;35.70;;;3.00;99.90;;;;;;5049645;28;20807;-56
2022/01/01 03:06:32;;;;;;;30.37;25.47;;;3.00;99.90;;;;;;5087246;22;20790;-54
2022/01/01 03:08:58;;;;;;;24.67;17.53;;;3.10;99.90;;;;;;5068309;28;20230;-54
2022/01/01 03:11:25;;;;;;;16.73;13.40;;;3.10;99.90;;;;;;5068587;28;20925;-55
2022/01/01 03:13:54;;;;;;;17.17;13.07;;;3.20;99.90;;;;;;5067231;28;20523;-54
2022/01/01 03:16:21;;;;;;;21.70;16.90;;;3.20;99.90;;;;;;5068646;28;20583;-54
2022/01/01 03:18:48;;;;;;;20.97;16.33;;;3.20;99.90;;;;;;5069137;28;20523;-55
2022/01/01 03:21:14;;;;;;;20.30;15.93;;;3.20;99.90;;;;;;5069462;28;20499;-54
2022/01/01 03:23:41;;;;;;;19.43;15.40;;;3.20;99.90;;;;;;5067784;28;20568;-54
2022/01/01 03:26:08;;;;;;;16.77;12.93;;;3.20;99.90;;;;;;5067890;28;20518;-55
2022/01/01 03:28:35;;;;;;;18.47;11.50;;;3.30;99.90;;;;;;5068447;28;20532;-55
2022/01/01 03:31:04;;;;;;;15.70;11.73;;;3.30;99.90;;;;;;5070048;28;20440;-55
2022/01/01 03:33:31;;;;;;;25.00;17.20;;;3.10;99.90;;;;;;5065754;28;20533;-56
2022/01/01 03:35:58;;;;;;;22.73;15.40;;;3.20;99.90;;;;;;5068062;28;20881;-55
2022/01/01 03:38:24;;;;;;;23.37;15.37;;;3.00;99.90;;;;;;5072267;28;20523;-55
2022/01/01 03:40:51;;;;;;;21.80;15.53;;;3.10;99.90;;;;;;5066864;28;20499;-55
2022/01/01 03:43:18;;;;;;;24.37;17.90;;;3.20;99.90;;;;;;5067128;28;20541;-55
2022/01/01 03:45:45;;;;;;;21.57;15.13;;;3.20;99.90;;;;;;5067654;28;20493;-55
2022/01/01 03:48:13;;;;;;;25.23;15.80;;;3.30;99.90;;;;;;5067833;28;20528;-54
2022/01/01 03:50:40;;;;;;;23.03;17.47;;;3.30;99.90;;;;;;5065135;28;20475;-55
2022/01/01 03:53:07;;;;;;;23.57;17.60;;;3.30;99.90;;;;;;5067875;28;20910;-55
2022/01/01 03:55:34;;;;;;;30.53;19.00;;;3.30;99.90;;;;;;5068263;28;20515;-55
2022/01/01 03:58:01;;;;;;;34.03;22.00;;;3.30;99.90;;;;;;5068394;28;21233;-55
2022/01/01 04:00:28;;;;;;;25.97;18.87;;;3.20;99.90;;;;;;5062642;28;20528;-55
2022/01/01 04:02:55;;;;;;;23.47;17.20;;;3.00;99.90;;;;;;5067629;28;20535;-54
2022/01/01 04:05:24;;;;;;;18.27;13.37;;;2.80;99.90;;;;;;5069167;28;21018;-55
2022/01/01 04:07:51;;;;;;;14.93;10.80;;;2.80;99.90;;;;;;5072663;28;20624;-55
2022/01/01 04:10:18;;;;;;;13.70;10.77;;;2.50;99.90;;;;;;5066754;28;20479;-55
2022/01/01 04:12:45;;;;;;;17.87;13.80;;;2.80;99.90;;;;;;5070399;28;20540;-55
2022/01/01 04:15:12;;;;;;;20.37;17.03;;;3.00;99.90;;;;;;5079118;28;21010;-55
2022/01/01 04:17:39;;;;;;;20.07;14.13;;;3.10;99.90;;;;;;5071347;28;20480;-55
2022/01/01 04:20:08;;;;;;;20.47;14.50;;;2.70;99.90;;;;;;5069670;28;20932;-55
2022/01/01 04:22:36;;;;;;;27.47;17.60;;;2.90;99.90;;;;;;5070530;28;20794;-55
2022/01/01 04:25:03;;;;;;;23.53;15.30;;;3.00;99.90;;;;;;5071477;28;20915;-55
2022/01/01 04:27:30;;;;;;;29.63;19.33;;;2.60;99.90;;;;;;5069589;28;20481;-55
2022/01/01 04:29:57;;;;;;;28.10;20.87;;;2.50;99.90;;;;;;5067975;28;20491;-55
2022/01/01 04:32:24;;;;;;;33.17;20.60;;;2.40;99.90;;;;;;5072355;28;20479;-55
2022/01/01 04:34:51;;;;;;;24.77;18.67;;;2.30;99.90;;;;;;5069067;28;20540;-55
2022/01/01 04:37:20;;;;;;;33.10;23.37;;;2.20;99.90;;;;;;5068510;28;20483;-55
2022/01/01 04:39:52;;;;;;;38.93;26.47;;;2.10;99.90;;;;;;5070238;28;20447;-55
2022/01/01 04:42:19;;;;;;;60.60;41.70;;;2.20;99.90;;;;;;5072013;28;20836;-55
2022/01/01 04:44:46;;;;;;;74.23;50.07;;;2.50;99.90;;;;;;5068820;28;20570;-55
2022/01/01 04:47:13;;;;;;;86.83;57.37;;;2.60;99.90;;;;;;5069754;28;20531;-55
2022/01/01 04:49:39;;;;;;;93.57;61.07;;;2.40;99.90;;;;;;5072713;28;20472;-55
2022/01/01 04:52:07;;;;;;;91.80;60.17;;;2.40;99.90;;;;;;5078436;28;20520;-55
2022/01/01 04:54:38;;;;;;;46.00;35.03;;;2.20;99.90;;;;;;5073691;28;20921;-55
2022/01/01 04:57:07;;;;;;;46.40;33.17;;;2.10;99.90;;;;;;5067471;28;20536;-55
2022/01/01 04:59:35;;;;;;;30.53;24.20;;;2.30;99.90;;;;;;5070040;28;20527;-55
2022/01/01 05:02:03;;;;;;;27.10;20.57;;;2.40;99.90;;;;;;5069981;28;20475;-55
2022/01/01 05:04:30;;;;;;;27.40;20.10;;;2.50;99.90;;;;;;5068015;28;20916;-55
2022/01/01 05:06:57;;;;;;;39.30;29.73;;;2.70;99.90;;;;;;5069832;28;20531;-56
2022/01/01 05:09:27;;;;;;;69.30;45.70;;;2.80;99.90;;;;;;5070496;28;20524;-55
2022/01/01 05:11:55;;;;;;;80.70;51.93;;;2.90;99.90;;;;;;5062543;28;20514;-55
2022/01/01 05:14:23;;;;;;;76.63;50.97;;;2.70;99.90;;;;;;5066050;28;20535;-55
2022/01/01 05:16:51;;;;;;;61.47;41.63;;;2.50;99.90;;;;;;5069227;28;20878;-55
2022/01/01 05:19:19;;;;;;;49.53;40.13;;;2.50;99.90;;;;;;5066379;28;20438;-54
2022/01/01 05:21:46;;;;;;;45.43;31.03;;;2.30;99.90;;;;;;5067067;28;20471;-55
2022/01/01 05:24:18;;;;;;;23.50;15.50;;;2.30;99.90;;;;;;5066787;28;20519;-55
2022/01/01 05:26:45;;;;;;;24.80;16.20;;;2.30;99.90;;;;;;5067991;28;20512;-55
2022/01/01 05:29:12;;;;;;;44.33;31.30;;;2.30;99.90;;;;;;5068693;28;20472;-55
2022/01/01 05:31:41;;;;;;;29.53;20.90;;;2.40;99.90;;;;;;5071870;28;20487;-55
2022/01/01 05:34:08;;;;;;;21.10;14.67;;;2.30;99.90;;;;;;5065761;28;20472;-54
2022/01/01 05:36:35;;;;;;;16.60;14.57;;;2.30;99.90;;;;;;5068170;28;20468;-55
2022/01/01 05:39:02;;;;;;;19.70;13.07;;;2.40;99.90;;;;;;5066821;28;20475;-53
2022/01/01 05:41:29;;;;;;;17.80;13.93;;;2.50;99.90;;;;;;5069083;28;20487;-55
2022/01/01 05:43:55;;;;;;;13.90;10.83;;;2.40;99.90;;;;;;5058278;28;20527;-55
2022/01/01 05:46:22;;;;;;;22.03;13.77;;;2.50;99.90;;;;;;5069592;28;20497;-55
2022/01/01 05:48:51;;;;;;;15.77;12.83;;;2.60;99.90;;;;;;5061893;28;20963;-55
2022/01/01 05:51:18;;;;;;;9.77;8.07;;;2.20;99.90;;;;;;5069897;28;20523;-54
2022/01/01 05:53:45;;;;;;;12.43;8.23;;;1.50;99.90;;;;;;5069344;28;20887;-55
2022/01/01 05:56:11;;;;;;;6.30;5.70;;;1.80;99.90;;;;;;5073706;28;20491;-53
2022/01/01 05:58:38;;;;;;;6.40;5.30;;;1.80;99.90;;;;;;5068494;28;20868;-55
2022/01/01 06:01:05;;;;;;;10.87;8.73;;;1.80;99.90;;;;;;5073113;28;20476;-55
2022/01/01 06:03:32;;;;;;;59.20;36.90;;;2.10;99.90;;;;;;5068589;28;20824;-55
2022/01/01 06:06:00;;;;;;;32.47;21.90;;;2.10;99.90;;;;;;5068860;28;20913;-55
2022/01/01 06:08:28;;;;;;;11.57;9.33;;;1.10;99.90;;;;;;5068561;28;21042;-55
2022/01/01 06:10:55;;;;;;;15.87;11.53;;;1.10;99.90;;;;;;5067235;28;20455;-55
2022/01/01 06:13:22;;;;;;;10.63;7.83;;;1.40;99.90;;;;;;5063766;28;20539;-55
2022/01/01 06:15:49;;;;;;;8.40;6.33;;;1.60;99.90;;;;;;5067509;28;20550;-54
2022/01/01 06:18:16;;;;;;;10.67;8.40;;;1.60;99.90;;;;;;5067278;28;20887;-55
2022/01/01 06:20:43;;;;;;;43.80;33.00;;;1.90;99.90;;;;;;5067240;28;20535;-56
2022/01/01 06:23:11;;;;;;;22.40;16.30;;;2.00;99.90;;;;;;5069235;28;20529;-55
2022/01/01 06:25:38;;;;;;;15.13;10.63;;;1.40;99.90;;;;;;5067218;28;20563;-55
2022/01/01 06:28:06;;;;;;;62.13;43.60;;;1.70;99.90;;;;;;5066724;28;20475;-55
2022/01/01 06:30:34;;;;;;;27.90;22.53;;;1.90;99.90;;;;;;5068325;28;20543;-55
2022/01/01 06:33:02;;;;;;;23.30;14.47;;;1.40;99.90;;;;;;5069123;28;20465;-55
2022/01/01 06:35:29;;;;;;;51.87;35.20;;;1.70;99.90;;;;;;5063185;28;20557;-56
2022/01/01 06:37:56;;;;;;;19.30;15.73;;;1.90;99.90;;;;;;5065172;28;20472;-52
2022/01/01 06:40:24;;;;;;;53.03;40.13;;;1.80;99.90;;;;;;5062406;28;20448;-55
2022/01/01 06:42:51;;;;;;;52.10;40.97;;;1.90;99.90;;;;;;5068013;28;20476;-55
2022/01/01 06:45:18;;;;;;;34.10;21.77;;;2.00;99.90;;;;;;5062609;28;20571;-55
2022/01/01 06:47:45;;;;;;;31.33;21.33;;;2.00;99.90;;;;;;5067004;28;20495;-55
2022/01/01 06:50:12;;;;;;;13.03;9.40;;;2.00;99.90;;;;;;5063409;28;20887;-55
2022/01/01 06:52:44;;;;;;;6.23;5.10;;;2.20;99.90;;;;;;5065309;28;20474;-56
2022/01/01 06:55:12;;;;;;;35.70;25.77;;;2.20;99.90;;;;;;5061580;28;20464;-54
2022/01/01 06:57:40;;;;;;;33.17;24.40;;;2.20;99.90;;;;;;5066247;28;20531;-55
2022/01/01 07:00:09;;;;;;;18.33;14.47;;;2.20;99.90;;;;;;5067460;28;20478;-55
2022/01/01 07:02:39;;;;;;;10.80;8.30;;;1.40;99.90;;;;;;5066967;28;20558;-56
2022/01/01 07:05:07;;;;;;;45.30;25.50;;;1.80;99.90;;;;;;5066578;28;20567;-56
2022/01/01 07:07:34;;;;;;;16.60;11.83;;;2.00;99.90;;;;;;5070237;28;20542;-55
2022/01/01 07:10:01;;;;;;;7.53;4.80;;;1.80;99.90;;;;;;5065688;28;20472;-55
2022/01/01 07:12:28;;;;;;;3.70;2.30;;;1.90;99.90;;;;;;5065402;28;20541;-55
2022/01/01 07:14:56;;;;;;;6.17;4.50;;;1.80;99.90;;;;;;5068089;28;20488;-55
2022/01/01 07:17:23;;;;;;;3.20;2.50;;;2.00;99.90;;;;;;5068936;28;20523;-55
2022/01/01 07:19:50;;;;;;;8.70;6.70;;;2.10;99.90;;;;;;5066463;28;20548;-55
2022/01/01 07:22:18;;;;;;;17.53;14.70;;;2.40;99.90;;;;;;5065947;28;20539;-55
2022/01/01 07:24:45;;;;;;;19.57;14.30;;;2.50;99.90;;;;;;5067973;28;20566;-55
2022/01/01 07:27:12;;;;;;;13.60;11.13;;;2.50;99.90;;;;;;5065671;28;20679;-55
2022/01/01 07:29:39;;;;;;;12.93;9.10;;;2.50;99.90;;;;;;5066496;28;20530;-55
2022/01/01 07:32:08;;;;;;;13.33;8.70;;;2.20;99.90;;;;;;5065639;28;20478;-55
2022/01/01 07:34:35;;;;;;;19.00;14.73;;;2.30;99.90;;;;;;5065933;28;20478;-55
2022/01/01 07:37:03;;;;;;;30.67;23.60;;;2.30;99.90;;;;;;5069071;28;20532;-57
2022/01/01 07:39:30;;;;;;;42.70;29.20;;;2.20;99.90;;;;;;5063082;28;20479;-54
2022/01/01 07:41:56;;;;;;;18.03;15.07;;;1.60;99.90;;;;;;5071415;28;20531;-57
2022/01/01 07:44:23;;;;;;;7.90;6.60;;;0.80;99.90;;;;;;5070831;28;20962;-55
2022/01/01 07:46:52;;;;;;;31.90;25.30;;;1.00;99.90;;;;;;5076634;28;20476;-55
2022/01/01 07:49:21;;;;;;;38.63;28.50;;;1.20;99.90;;;;;;5069793;28;20952;-55
2022/01/01 07:51:47;;;;;;;22.07;16.73;;;1.20;99.90;;;;;;5072120;28;20499;-52
2022/01/01 07:54:14;;;;;;;13.47;10.10;;;1.00;99.90;;;;;;5077835;28;20523;-55
2022/01/01 07:56:41;;;;;;;45.80;33.87;;;1.10;99.90;;;;;;5068099;28;20976;-55
2022/01/01 07:59:08;;;;;;;43.13;32.90;;;1.10;99.90;;;;;;5069475;28;20489;-55
2022/01/01 08:01:36;;;;;;;72.33;49.97;;;1.20;99.90;;;;;;5069606;28;20994;-54
2022/01/01 08:04:03;;;;;;;80.60;57.70;;;1.10;99.90;;;;;;5071823;28;20479;-55
2022/01/01 08:06:32;;;;;;;50.17;38.07;;;1.10;99.90;;;;;;5069682;28;21026;-55
2022/01/01 08:08:59;;;;;;;58.57;42.27;;;0.60;99.90;;;;;;5071906;28;20903;-54
2022/01/01 08:11:26;;;;;;;66.97;48.47;;;0.70;99.90;;;;;;5071061;28;20467;-53
2022/01/01 08:13:53;;;;;;;68.00;47.77;;;0.80;99.90;;;;;;5067081;28;20520;-55
2022/01/01 08:16:20;;;;;;;66.37;47.30;;;0.80;99.90;;;;;;5064706;28;20612;-55
2022/01/01 08:18:47;;;;;;;66.70;49.27;;;0.80;99.90;;;;;;5068769;28;20517;-55
2022/01/01 08:21:14;;;;;;;52.27;35.47;;;0.90;99.90;;;;;;5072038;28;20545;-54
2022/01/01 08:23:42;;;;;;;31.17;24.73;;;0.70;99.90;;;;;;5068239;28;20494;-55
2022/01/01 08:26:09;;;;;;;45.13;30.80;;;0.80;99.90;;;;;;5068226;28;20483;-55
2022/01/01 08:28:36;;;;;;;61.00;47.03;;;0.90;99.90;;;;;;5070395;28;20919;-54
2022/01/01 08:31:04;;;;;;;40.00;26.67;;;0.90;99.90;;;;;;5071139;28;20486;-55
2022/01/01 08:33:31;;;;;;;28.70;20.20;;;0.40;99.90;;;;;;5069236;28;20461;-55
2022/01/01 08:35:57;;;;;;;47.03;33.00;;;0.60;99.90;;;;;;5069556;28;20555;-55
2022/01/01 08:38:24;;;;;;;39.13;32.40;;;0.70;99.90;;;;;;5069574;28;20511;-54
2022/01/01 08:40:53;;;;;;;38.77;29.67;;;0.60;99.90;;;;;;5073198;28;20476;-54
2022/01/01 08:43:20;;;;;;;23.60;17.40;;;0.70;99.90;;;;;;5069630;28;20474;-55
2022/01/01 08:45:46;;;;;;;37.50;25.93;;;0.80;99.90;;;;;;5066243;28;20912;-55
2022/01/01 08:48:13;;;;;;;17.90;14.73;;;0.90;99.90;;;;;;5072515;28;20478;-55
2022/01/01 08:50:40;;;;;;;48.80;35.00;;;1.00;99.90;;;;;;5069086;28;20846;-55
2022/01/01 08:53:07;;;;;;;38.27;29.73;;;1.00;99.90;;;;;;5069009;28;20534;-55
2022/01/01 08:55:34;;;;;;;17.23;13.57;;;1.00;99.90;;;;;;5070571;28;21003;-54
2022/01/01 08:58:02;;;;;;;16.23;10.83;;;1.00;99.90;;;;;;5069460;28;20530;-56
2022/01/01 09:00:30;;;;;;;11.03;8.53;;;1.00;99.90;;;;;;5072834;28;20538;-55
2022/01/01 09:02:56;;;;;;;82.80;54.67;;;1.10;99.90;;;;;;5067263;28;21030;-55
2022/01/01 09:05:25;;;;;;;49.07;33.73;;;1.20;99.90;;;;;;5094543;22;21106;-51
2022/01/01 09:07:52;;;;;;;14.83;10.80;;;1.10;99.90;;;;;;5069664;28;20444;-51
2022/01/01 09:10:20;;;;;;;11.37;8.43;;;1.00;99.90;;;;;;5063679;28;20532;-50
2022/01/01 09:12:47;;;;;;;14.33;9.30;;;1.10;99.90;;;;;;5066891;28;20444;-49
2022/01/01 09:15:16;;;;;;;7.67;6.00;;;1.10;99.90;;;;;;5072175;28;20495;-51
2022/01/01 09:17:43;;;;;;;9.17;7.77;;;1.20;99.90;;;;;;5069020;28;20506;-50
2022/01/01 09:20:11;;;;;;;21.40;14.90;;;1.30;99.90;;;;;;5067453;28;20552;-49
2022/01/01 09:22:38;;;;;;;20.80;14.47;;;1.40;99.90;;;;;;5066836;28;20748;-48
2022/01/01 09:25:05;;;;;;;11.30;9.73;;;1.30;99.90;;;;;;5068630;28;20539;-52
2022/01/01 09:27:33;;;;;;;17.53;12.47;;;1.40;99.90;;;;;;5067884;28;20448;-50
2022/01/01 09:30:00;;;;;;;53.87;38.50;;;1.50;99.90;;;;;;5066945;28;20831;-49
2022/01/01 09:32:28;;;;;;;32.10;25.13;;;1.50;99.90;;;;;;5059594;28;20472;-50
2022/01/01 09:34:55;;;;;;;25.83;20.10;;;1.60;99.90;;;;;;5060731;28;22025;-50
2022/01/01 09:37:23;;;;;;;26.20;19.13;;;1.50;99.90;;;;;;5067344;28;20444;-49
2022/01/01 09:39:50;;;;;;;11.90;9.97;;;1.50;99.90;;;;;;5061647;28;21016;-48
2022/01/01 09:42:22;;;;;;;11.20;10.10;;;1.30;99.90;;;;;;5061028;28;20472;-49
2022/01/01 09:44:49;;;;;;;6.90;6.20;;;1.40;99.90;;;;;;5066737;28;20450;-51
2022/01/01 09:47:16;;;;;;;9.33;7.03;;;1.40;99.90;;;;;;5063619;28;20483;-50
2022/01/01 09:49:44;;;;;;;5.50;4.90;;;1.30;99.90;;;;;;5062380;28;20480;-52
2022/01/01 09:52:14;;;;;;;4.50;3.80;;;1.30;99.90;;;;;;5066803;28;20483;-51
2022/01/01 09:54:42;;;;;;;4.23;3.80;;;1.40;99.90;;;;;;5063240;28;20488;-50
2022/01/01 09:57:10;;;;;;;7.67;6.27;;;1.50;99.90;;;;;;5061966;28;20475;-50
2022/01/01 09:59:38;;;;;;;6.87;5.87;;;1.60;99.90;;;;;;5064905;28;20881;-51
2022/01/01 10:02:05;;;;;;;5.70;5.20;;;1.70;99.90;;;;;;5062757;28;20539;-51
2022/01/01 10:04:42;;;;;;;14.03;11.47;;;1.80;99.90;;;;;;5064490;28;20491;-49
2022/01/01 10:07:11;;;;;;;57.93;37.83;;;1.90;99.90;;;;;;5064383;28;20482;-52
2022/01/01 10:09:39;;;;;;;27.13;22.80;;;1.90;99.90;;;;;;5062740;28;20539;-49
2022/01/01 10:12:09;;;;;;;20.90;14.80;;;1.50;99.90;;;;;;5065223;28;20563;-51
2022/01/01 10:14:38;;;;;;;15.60;11.90;;;1.40;99.90;;;;;;5061327;28;20968;-49
2022/01/01 10:17:15;;;;;;;15.40;13.77;;;1.50;99.90;;;;;;5063858;28;20528;-50
2022/01/01 10:19:43;;;;;;;10.47;9.37;;;1.30;99.90;;;;;;5063253;28;20854;-50
2022/01/01 10:22:13;;;;;;;7.53;6.00;;;1.30;99.90;;;;;;5066907;28;20472;-50
2022/01/01 10:27:46;;;;;;;25.47;20.33;;;1.70;99.90;;;;;;5061210;28;20563;-51
2022/01/01 10:30:25;;;;;;;32.73;23.27;;;1.80;99.90;;;;;;5060740;28;20452;-50
2022/01/01 10:33:02;;;;;;;30.40;22.40;;;2.00;99.90;;;;;;5064021;28;20476;-51
2022/01/01 10:35:34;;;;;;;20.70;17.40;;;2.10;99.90;;;;;;5063529;28;20554;-49
2022/01/01 10:38:04;;;;;;;15.10;12.40;;;2.30;99.90;;;;;;5062287;28;21040;-50
2022/01/01 10:40:31;;;;;;;9.80;8.80;;;2.40;99.90;;;;;;5062958;28;20451;-49
2022/01/01 10:42:58;;;;;;;9.17;7.53;;;2.50;99.90;;;;;;5062264;28;20468;-49
2022/01/01 10:45:34;;;;;;;9.23;7.43;;;2.60;99.90;;;;;;5063702;28;20537;-50
2022/01/01 10:48:17;;;;;;;11.83;9.80;;;2.80;99.90;;;;;;5060839;28;20929;-50
2022/01/01 10:50:45;;;;;;;20.77;16.77;;;2.90;99.90;;;;;;5063685;28;20867;-50
2022/01/01 10:53:16;;;;;;;16.43;14.93;;;3.00;99.90;;;;;;5061280;28;20441;-53
2022/01/01 10:55:44;;;;;;;14.83;12.67;;;3.10;99.90;;;;;;5063324;28;20508;-49
2022/01/01 10:58:18;;;;;;;13.63;12.27;;;3.10;99.90;;;;;;5063403;28;20473;-51
2022/01/01 11:00:46;;;;;;;13.40;11.20;;;3.30;99.90;;;;;;5061347;28;20548;-50
2022/01/01 11:03:17;;;;;;;15.23;12.63;;;3.30;99.90;;;;;;5062893;28;20516;-51
2022/01/01 11:05:46;;;;;;;15.03;13.47;;;3.30;99.90;;;;;;5064497;28;20480;-51
2022/01/01 11:08:15;;;;;;;16.20;14.37;;;3.40;99.90;;;;;;5062864;28;20476;-49
2022/01/01 11:10:43;;;;;;;14.57;12.77;;;3.40;99.90;;;;;;5063134;28;20507;-50
2022/01/01 11:13:11;;;;;;;17.83;13.77;;;3.50;99.90;;;;;;5063642;28;20436;-50
2022/01/01 11:15:38;;;;;;;10.10;9.10;;;3.50;99.90;;;;;;5061459;28;20496;-51
2022/01/01 11:18:06;;;;;;;11.03;8.73;;;3.50;99.90;;;;;;5070245;28;20740;-50
2022/01/01 11:20:35;;;;;;;10.20;8.23;;;3.50;99.90;;;;;;5070573;28;20534;-52
2022/01/01 11:23:05;;;;;;;10.77;8.30;;;3.50;99.90;;;;;;5068427;28;21024;-51
2022/01/01 11:25:34;;;;;;;9.03;6.90;;;3.60;99.90;;;;;;5068249;28;20581;-52
2022/01/01 11:28:02;;;;;;;8.10;6.17;;;3.70;99.90;;;;;;5067859;28;20448;-49
2022/01/01 11:30:31;;;;;;;5.83;5.33;;;3.70;99.90;;;;;;5066347;28;20785;-51
2022/01/01 11:33:04;;;;;;;14.60;13.10;;;3.80;99.90;;;;;;5070679;28;20469;-51
2022/01/01 11:35:33;;;;;;;18.73;16.67;;;3.90;99.90;;;;;;5066010;28;20492;-50
2022/01/01 11:38:07;;;;;;;19.50;16.27;;;4.00;99.90;;;;;;5068214;28;20532;-51
2022/01/01 11:40:44;;;;;;;23.50;20.20;;;4.00;99.90;;;;;;5067330;28;20506;-50
2022/01/01 11:43:32;;;;;;;31.60;23.63;;;4.00;99.90;;;;;;5061512;28;20539;-53
2022/01/01 11:45:59;;;;;;;24.37;21.43;;;3.90;99.90;;;;;;5069135;28;20903;-51
2022/01/01 11:48:47;;;;;;;18.53;16.20;;;3.90;99.90;;;;;;5068676;28;20499;-48
2022/01/01 11:51:35;;;;;;;16.27;9.73;;;4.00;99.90;;;;;;5067954;28;21014;-50
2022/01/01 11:54:10;;;;;;;16.60;13.10;;;4.10;99.90;;;;;;5069026;28;20801;-51
2022/01/01 11:57:08;;;;;;;16.57;14.97;;;4.30;99.90;;;;;;5068681;28;20789;-50
2022/01/01 12:00:03;;;;;;;18.53;16.50;;;4.40;99.90;;;;;;5069880;28;20470;-50
2022/01/01 12:02:39;;;;;;;20.50;17.00;;;4.50;99.90;;;;;;5054499;28;20486;-50
2022/01/01 12:05:27;;;;;;;18.10;15.30;;;4.50;99.90;;;;;;5067733;28;20473;-50
2022/01/01 12:07:57;;;;;;;20.47;15.27;;;4.60;99.90;;;;;;5068721;28;20531;-49
2022/01/01 12:10:36;;;;;;;16.33;14.73;;;4.60;99.90;;;;;;5067999;28;20517;-50
2022/01/01 12:13:06;;;;;;;17.33;15.50;;;4.60;99.90;;;;;;5068920;28;20450;-49
2022/01/01 12:15:38;;;;;;;17.13;15.17;;;4.70;99.90;;;;;;5063670;28;20479;-51
2022/01/01 12:18:07;;;;;;;19.13;16.13;;;4.80;99.90;;;;;;5066488;28;20862;-51
2022/01/01 12:20:36;;;;;;;19.50;14.33;;;4.80;99.90;;;;;;5067155;28;20454;-49
2022/01/01 12:23:06;;;;;;;15.33;13.20;;;4.80;99.90;;;;;;5070035;28;20522;-52
2022/01/01 12:25:35;;;;;;;12.43;11.13;;;4.80;99.90;;;;;;5068895;28;20478;-49
2022/01/01 12:28:07;;;;;;;11.03;9.87;;;4.80;99.90;;;;;;5069047;28;20483;-53
2022/01/01 12:30:47;;;;;;;8.93;7.90;;;4.90;99.90;;;;;;5069479;28;20445;-49
2022/01/01 12:33:24;;;;;;;10.00;9.00;;;4.90;99.90;;;;;;5068507;28;20540;-49
2022/01/01 12:35:53;;;;;;;10.90;9.83;;;4.90;99.90;;;;;;5060722;28;20473;-49
2022/01/01 12:38:22;;;;;;;9.80;8.17;;;5.00;99.90;;;;;;5069318;28;20477;-50
2022/01/01 12:41:04;;;;;;;24.40;19.77;;;5.10;99.90;;;;;;5070161;28;20491;-50
2022/01/01 12:43:35;;;;;;;12.83;11.53;;;5.00;99.90;;;;;;5066240;28;20535;-51
2022/01/01 12:46:04;;;;;;;11.50;9.43;;;5.10;99.90;;;;;;5066670;28;20494;-49
2022/01/01 12:48:34;;;;;;;10.80;7.57;;;5.00;99.90;;;;;;5066914;28;20457;-52
2022/01/01 12:51:02;;;;;;;8.63;7.40;;;5.00;99.90;;;;;;5067871;28;20511;-51
2022/01/01 12:53:30;;;;;;;8.43;7.63;;;5.00;99.90;;;;;;5068407;28;20475;-53